Time;durP1;ratioP1;P1;durP2;ratioP2;P2;SDS_P1;SDS_P2;PMS_P1;PMS_P2;Temp;Humidity;BMP_temperature;BMP_pressure;BME280_temperature;BME280_humidity;BME280_pressure;Samples;Min_cycle;Max_cycle;Signal;HPM_P1;HPM_P2
2021/05/01 00:00:22;;;;;;;4.47;3.10;;;;;;;13.24;56.17;100137.06;4962167;28;20053;-68
2021/05/01 00:02:48;;;;;;;5.87;3.40;;;;;;;13.23;56.05;100152.19;4962300;28;20058;-68
2021/05/01 00:05:14;;;;;;;9.33;3.63;;;;;;;13.15;56.05;100138.88;4960174;28;20047;-68
2021/05/01 00:07:41;;;;;;;6.47;3.30;;;;;;;13.19;56.00;100151.13;4957066;28;20058;-71
2021/05/01 00:10:14;;;;;;;8.67;3.70;;;;;;;13.11;55.68;100126.63;4956167;28;20059;-70
2021/05/01 00:12:41;;;;;;;7.93;3.97;;;;;;;13.11;55.68;100129.44;4966135;28;20055;-79
2021/05/01 00:15:12;;;;;;;5.27;3.10;;;;;;;13.16;55.66;100140.53;4966979;28;20051;-73
2021/05/01 00:17:39;;;;;;;8.23;3.33;;;;;;;13.21;55.49;100146.06;4958181;28;20505;-71
2021/05/01 00:20:06;;;;;;;7.83;3.50;;;;;;;13.19;55.60;100137.13;4957150;28;20090;-72
2021/05/01 00:22:32;;;;;;;6.50;3.37;;;;;;;13.08;55.41;100130.88;4963126;28;20056;-73
2021/05/01 00:24:58;;;;;;;9.47;3.50;;;;;;;13.16;55.45;100146.13;4942956;28;20055;-75
2021/05/01 00:27:24;;;;;;;6.53;3.30;;;;;;;13.18;55.45;100146.69;4956005;28;20382;-75
2021/05/01 00:29:54;;;;;;;5.87;3.83;;;;;;;13.15;55.46;100150.91;4964530;28;20412;-69
2021/05/01 00:32:20;;;;;;;13.57;5.80;;;;;;;13.11;55.38;100143.44;4958917;28;20092;-71
2021/05/01 00:34:46;;;;;;;12.87;5.83;;;;;;;13.01;55.50;100133.25;4963026;28;20051;-67
2021/05/01 00:37:13;;;;;;;13.23;8.13;;;;;;;13.09;55.57;100148.50;4953206;28;20051;-74
2021/05/01 00:39:39;;;;;;;13.07;4.80;;;;;;;12.99;55.45;100138.31;4968012;28;20056;-77
2021/05/01 00:42:05;;;;;;;9.33;4.43;;;;;;;13.05;55.47;100149.13;4960909;28;20065;-79
2021/05/01 00:44:31;;;;;;;7.37;4.07;;;;;;;13.03;55.39;100145.81;4959548;28;20134;-74
2021/05/01 00:46:58;;;;;;;9.17;4.43;;;;;;;13.05;55.57;100149.13;4954377;28;20051;-76
2021/05/01 00:49:24;;;;;;;7.10;5.10;;;;;;;13.03;55.46;100151.41;4960606;28;20149;-79
2021/05/01 00:51:51;;;;;;;10.87;4.90;;;;;;;12.96;55.39;100139.78;4963259;28;20047;-73
2021/05/01 00:54:17;;;;;;;9.03;4.93;;;;;;;12.98;55.47;100148.69;4963545;28;20492;-77
2021/05/01 00:56:44;;;;;;;9.80;4.77;;;;;;;12.93;55.56;100146.00;4965048;28;20047;-75
2021/05/01 00:59:16;;;;;;;7.00;4.30;;;;;;;12.86;55.50;100137.16;4955714;28;20058;-76
2021/05/01 01:01:50;;;;;;;6.17;4.27;;;;;;;12.83;55.53;100132.16;4969418;28;20141;-73
2021/05/01 01:04:17;;;;;;;6.63;3.90;;;;;;;12.84;55.31;100145.00;4966099;28;20061;-72
2021/05/01 01:06:47;;;;;;;9.83;4.60;;;;;;;12.80;55.54;100138.38;4962217;28;20081;-71
2021/05/01 01:09:14;;;;;;;;;;;;;;;12.80;55.18;100143.97;4960138;28;20492;-71
2021/05/01 01:11:41;;;;;;;9.07;4.17;;;;;;;12.70;55.44;100144.13;4958413;28;19933;-70
2021/05/01 01:14:08;;;;;;;7.10;4.33;;;;;;;12.61;55.59;100134.75;4956941;28;20106;-69
2021/05/01 01:16:39;;;;;;;7.53;4.53;;;;;;;12.67;55.77;100144.72;4958721;28;20050;-68
2021/05/01 01:19:07;;;;;;;8.27;4.27;;;;;;;12.63;55.55;100140.88;4958319;28;20048;-74
2021/05/01 01:21:40;;;;;;;9.27;4.17;;;;;;;12.67;55.45;100145.56;4961326;28;20448;-74
2021/05/01 01:24:07;;;;;;;6.27;3.90;;;;;;;12.66;55.27;100145.88;4966354;28;20506;-75
2021/05/01 01:26:43;;;;;;;7.50;4.17;;;;;;;12.64;55.48;100150.94;4942024;28;20524;-72
2021/05/01 01:29:14;;;;;;;5.73;3.60;;;;;;;12.64;55.69;100148.16;4958521;28;20055;-75
2021/05/01 01:31:42;;;;;;;6.60;3.90;;;;;;;12.62;55.74;100156.03;4960689;28;20128;-74
2021/05/01 01:34:09;;;;;;;8.90;4.10;;;;;;;12.60;55.51;100138.69;4958530;28;20053;-75
2021/05/01 01:36:36;;;;;;;6.87;3.73;;;;;;;12.47;55.73;100129.91;4957777;28;20058;-74
2021/05/01 01:39:05;;;;;;;6.60;3.70;;;;;;;12.40;55.74;100118.25;4961333;28;20050;-74
2021/05/01 01:41:31;;;;;;;5.67;3.80;;;;;;;12.53;55.70;100139.91;4961813;28;20051;-76
2021/05/01 01:43:58;;;;;;;5.70;3.97;;;;;;;12.57;55.79;100143.75;4959582;28;20051;-76
2021/05/01 01:46:24;;;;;;;6.13;3.80;;;;;;;12.51;55.74;100139.38;4961350;28;20047;-76
2021/05/01 01:48:51;;;;;;;5.50;3.60;;;;;;;12.51;55.59;100136.59;4968707;28;20492;-74
2021/05/01 01:51:18;;;;;;;6.40;4.37;;;;;;;12.50;55.77;100140.50;4964152;28;20047;-75
2021/05/01 01:53:44;;;;;;;6.47;4.33;;;;;;;12.43;55.66;100131.66;4963552;28;20049;-72
2021/05/01 01:56:10;;;;;;;8.73;4.33;;;;;;;12.35;56.07;100123.94;4964077;28;20050;-72
2021/05/01 01:58:37;;;;;;;7.07;3.57;;;;;;;12.39;56.13;100139.00;4957173;28;20054;-70
2021/05/01 02:01:03;;;;;;;7.23;3.70;;;;;;;12.25;56.05;100121.31;4965024;28;20050;-72
2021/05/01 02:03:30;;;;;;;6.80;3.97;;;;;;;12.32;56.18;100138.56;4960202;28;20412;-71
2021/05/01 02:05:56;;;;;;;5.57;4.03;;;;;;;12.30;56.50;100140.81;4966944;28;20063;-70
2021/05/01 02:08:22;;;;;;;5.53;3.37;;;;;;;11.94;56.41;100093.75;4973125;28;20061;-71
2021/05/01 02:10:49;;;;;;;7.10;3.60;;;;;;;12.19;56.45;100139.28;4964627;28;20097;-72
2021/05/01 02:13:15;;;;;;;8.03;3.80;;;;;;;12.08;56.18;100125.44;4964806;28;20058;-71
2021/05/01 02:15:41;;;;;;;8.40;4.53;;;;;;;12.14;56.49;100142.19;4962435;28;20058;-71
2021/05/01 02:18:08;;;;;;;6.03;4.27;;;;;;;12.18;56.65;100143.25;4960621;28;20055;-72
2021/05/01 02:20:36;;;;;;;7.57;4.07;;;;;;;12.18;56.51;100143.25;4965172;28;20507;-72
2021/05/01 02:23:04;;;;;;;7.97;4.53;;;;;;;12.16;56.44;100134.28;4966539;28;20062;-72
2021/05/01 02:25:32;;;;;;;6.03;3.80;;;;;;;12.19;56.39;100134.53;4963612;28;20066;-70
2021/05/01 02:27:59;;;;;;;6.60;3.43;;;;;;;12.24;56.10;100153.22;4965134;28;20428;-70
2021/05/01 02:30:27;;;;;;;6.10;3.77;;;;;;;12.27;56.17;100152.59;4963499;28;20446;-70
2021/05/01 02:32:54;;;;;;;9.63;4.13;;;;;;;12.23;55.87;100140.34;4973309;28;20064;-68
2021/05/01 02:35:25;;;;;;;7.80;3.80;;;;;;;12.27;56.05;100149.81;4965446;28;20046;-71
2021/05/01 02:37:52;;;;;;;6.32;3.33;;;;;;;12.29;55.78;100151.19;4964343;28;20042;-70
2021/05/01 02:40:19;;;;;;;10.83;4.33;;;;;;;12.26;55.94;100148.16;4959104;23;20059;-64
2021/05/01 02:42:46;;;;;;;5.97;3.27;;;;;;;12.11;55.94;100134.38;4960598;28;20047;-63
2021/05/01 02:45:16;;;;;;;7.40;4.10;;;;;;;12.13;56.19;100141.31;4962984;28;20467;-65
2021/05/01 02:47:43;;;;;;;7.30;4.10;;;;;;;12.09;56.36;100149.50;4956138;28;20448;-65
2021/05/01 02:50:11;;;;;;;6.87;4.30;;;;;;;12.10;56.37;100141.91;4965146;28;20078;-64
2021/05/01 02:52:37;;;;;;;6.57;3.73;;;;;;;12.07;56.29;100148.16;4957561;28;20536;-64
2021/05/01 02:55:05;;;;;;;6.20;4.40;;;;;;;12.04;56.57;100149.56;4957004;28;20499;-65
2021/05/01 02:57:32;;;;;;;6.70;4.00;;;;;;;12.04;56.24;100160.78;4959237;28;20382;-64
2021/05/01 03:00:04;;;;;;;8.03;4.57;;;;;;;12.00;56.51;100154.13;4957634;28;20047;-64
2021/05/01 03:02:31;;;;;;;7.57;4.13;;;;;;;11.91;56.35;100144.72;4958052;28;20551;-65
2021/05/01 03:04:58;;;;;;;6.10;4.17;;;;;;;12.00;56.43;100154.13;4957904;28;20125;-65
2021/05/01 03:07:26;;;;;;;10.30;4.73;;;;;;;12.02;56.45;100160.22;4958280;28;20054;-65
2021/05/01 03:09:52;;;;;;;7.33;4.47;;;;;;;11.98;56.20;100156.38;4964526;28;20423;-64
2021/05/01 03:12:18;;;;;;;9.27;4.97;;;;;;;12.01;56.46;100158.56;4957855;28;20050;-65
2021/05/01 03:14:45;;;;;;;7.40;4.57;;;;;;;12.03;56.17;100163.84;4955944;28;20047;-63
2021/05/01 03:17:15;;;;;;;8.27;4.80;;;;;;;11.94;56.02;100149.72;4947373;28;20047;-63
2021/05/01 03:19:42;;;;;;;9.80;5.50;;;;;;;12.01;56.31;100166.13;4957303;28;20600;-63
2021/05/01 03:22:09;;;;;;;6.70;3.90;;;;;;;12.01;56.26;100166.13;4955945;28;20054;-66
2021/05/01 03:24:37;;;;;;;8.63;4.63;;;;;;;12.03;56.02;100170.31;4962083;28;20058;-64
2021/05/01 03:27:04;;;;;;;8.40;4.43;;;;;;;12.02;55.86;100157.44;4956017;28;20190;-63
2021/05/01 03:29:31;;;;;;;11.17;5.43;;;;;;;12.03;55.84;100169.44;4958410;28;20086;-64
2021/05/01 03:31:57;;;;;;;7.67;4.70;;;;;;;11.96;55.78;100155.00;4956544;28;20062;-64
2021/05/01 03:34:24;;;;;;;9.87;5.13;;;;;;;11.98;55.71;100164.75;4957707;28;20047;-64
2021/05/01 03:36:50;;;;;;;6.33;4.33;;;;;;;11.95;55.85;100168.16;4954004;28;20043;-66
2021/05/01 03:39:17;;;;;;;7.73;4.90;;;;;;;11.98;55.79;100173.16;4962768;28;20043;-62
2021/05/01 03:41:44;;;;;;;6.60;4.93;;;;;;;11.98;55.68;100161.97;4954839;28;20055;-63
2021/05/01 03:44:13;;;;;;;7.67;4.80;;;;;;;12.00;55.83;100165.31;4955547;28;20047;-63
2021/05/01 03:46:40;;;;;;;6.57;4.43;;;;;;;11.99;55.66;100172.00;4955089;28;20110;-61
2021/05/01 03:49:06;;;;;;;7.90;4.60;;;;;;;11.82;55.79;100152.88;4958677;28;20299;-63
2021/05/01 03:51:32;;;;;;;7.43;5.03;;;;;;;11.92;55.92;100179.13;4958088;28;20419;-64
2021/05/01 03:53:59;;;;;;;6.97;4.37;;;;;;;11.88;56.16;100170.47;4956585;28;20101;-63
2021/05/01 03:56:25;;;;;;;7.33;5.10;;;;;;;11.89;55.94;100176.91;4960489;28;20054;-64
2021/05/01 03:58:51;;;;;;;6.83;4.40;;;;;;;11.87;56.20;100176.41;4954201;28;20040;-65
2021/05/01 04:01:18;;;;;;;7.90;5.23;;;;;;;11.86;56.02;100178.34;4943587;28;20510;-64
2021/05/01 04:03:44;;;;;;;8.07;5.63;;;;;;;11.87;55.79;100185.63;4954538;28;20046;-65
2021/05/01 04:06:10;;;;;;;8.57;4.33;;;;;;;11.88;55.93;100187.28;4957746;28;20408;-64
2021/05/01 04:08:38;;;;;;;8.90;4.80;;;;;;;11.89;55.84;100190.91;4960283;28;20050;-62
2021/05/01 04:11:05;;;;;;;9.73;4.63;;;;;;;11.88;55.81;100184.47;4958028;28;20142;-63
2021/05/01 04:13:32;;;;;;;7.33;4.77;;;;;;;11.86;55.90;100189.53;4961656;28;20138;-62
2021/05/01 04:15:59;;;;;;;6.87;4.43;;;;;;;11.81;55.77;100183.97;4957557;28;20047;-63
2021/05/01 04:18:25;;;;;;;10.40;5.30;;;;;;;11.85;55.77;100187.88;4944426;28;20136;-62
2021/05/01 04:20:51;;;;;;;7.53;4.30;;;;;;;11.86;56.01;100192.31;4956726;28;20047;-63
2021/05/01 04:23:17;;;;;;;6.63;4.67;;;;;;;11.84;55.59;100187.03;4954468;28;20047;-63
2021/05/01 04:25:44;;;;;;;9.80;4.73;;;;;;;11.88;55.83;100189.25;4961619;28;20054;-63
2021/05/01 04:28:10;;;;;;;6.87;3.93;;;;;;;11.85;55.67;100190.66;4953710;28;20051;-62
2021/05/01 04:30:37;;;;;;;6.13;4.47;;;;;;;11.82;55.75;100185.63;4953295;28;20071;-62
2021/05/01 04:33:03;;;;;;;7.43;4.53;;;;;;;11.83;55.60;100182.56;4960089;28;20043;-61
2021/05/01 04:35:30;;;;;;;6.63;4.10;;;;;;;11.84;55.63;100189.00;4956389;28;20047;-63
2021/05/01 04:37:56;;;;;;;6.07;4.00;;;;;;;11.78;55.66;100184.56;4961731;28;20480;-62
2021/05/01 04:40:22;;;;;;;6.07;3.80;;;;;;;11.84;55.83;100191.81;4956716;28;20051;-62
2021/05/01 04:42:51;;;;;;;5.33;4.00;;;;;;;11.84;55.77;100194.59;4952914;28;20043;-63
2021/05/01 04:45:18;;;;;;;8.63;4.73;;;;;;;11.82;55.76;100196.81;4953947;28;20073;-62
2021/05/01 04:47:45;;;;;;;7.37;3.83;;;;;;;11.79;55.67;100197.41;4958294;28;20047;-63
2021/05/01 04:50:13;;;;;;;5.97;3.67;;;;;;;11.78;55.67;100195.75;4955399;28;20139;-64
2021/05/01 04:52:39;;;;;;;7.77;4.10;;;;;;;11.74;55.66;100203.09;4954206;28;20050;-62
2021/05/01 04:55:13;;;;;;;6.83;4.00;;;;;;;11.70;55.70;100210.41;4953808;28;20050;-61
2021/05/01 04:57:43;;;;;;;7.53;4.37;;;;;;;11.66;55.86;100214.91;4953841;28;20138;-60
2021/05/01 05:00:12;;;;;;;9.73;4.47;;;;;;;11.65;55.83;100214.06;4952431;28;20496;-59
2021/05/01 05:02:39;;;;;;;8.27;4.77;;;;;;;11.26;55.84;100156.31;4957425;28;20053;-59
2021/05/01 05:05:07;;;;;;;6.13;3.90;;;;;;;11.59;55.79;100209.69;4952355;28;20391;-62
2021/05/01 05:07:33;;;;;;;10.20;4.77;;;;;;;11.60;55.91;100223.34;4959952;28;20492;-62
2021/05/01 05:10:00;;;;;;;7.03;4.93;;;;;;;11.54;55.79;100213.34;4960145;28;20057;-60
2021/05/01 05:12:26;;;;;;;13.13;4.67;;;;;;;11.57;56.02;100221.16;4956386;28;20059;-59
2021/05/01 05:14:52;;;;;;;11.87;4.40;;;;;;;11.56;55.94;100233.47;4958597;28;20049;-59
2021/05/01 05:17:19;;;;;;;8.17;4.37;;;;;;;11.52;56.02;100229.59;4964198;28;20043;-60
2021/05/01 05:19:45;;;;;;;11.40;4.70;;;;;;;11.51;56.03;100225.13;4960667;28;20129;-61
2021/05/01 05:22:11;;;;;;;8.73;4.77;;;;;;;11.51;56.12;100236.31;4963857;28;20039;-60
2021/05/01 05:24:38;;;;;;;9.43;4.70;;;;;;;11.50;56.09;100229.06;4959130;28;20058;-68
2021/05/01 05:27:05;;;;;;;7.13;4.53;;;;;;;11.49;56.15;100233.00;4954349;28;20050;-63
2021/05/01 05:29:33;;;;;;;8.60;5.00;;;;;;;11.48;56.06;100228.50;4958558;28;20051;-59
2021/05/01 05:32:00;;;;;;;7.03;4.77;;;;;;;11.49;56.24;100235.78;4959590;28;20169;-63
2021/05/01 05:34:26;;;;;;;7.70;4.80;;;;;;;11.49;56.07;100230.19;4957736;28;20078;-65
2021/05/01 05:36:52;;;;;;;9.27;5.10;;;;;;;11.51;56.21;100241.91;4961728;28;20050;-62
2021/05/01 05:39:19;;;;;;;8.90;5.00;;;;;;;11.48;56.08;100241.66;4959840;28;20125;-63
2021/05/01 05:41:45;;;;;;;10.33;5.30;;;;;;;11.49;56.34;100254.53;4962503;28;20063;-64
2021/05/01 05:44:12;;;;;;;12.80;5.93;;;;;;;11.50;56.33;100248.63;4963864;28;20053;-67
2021/05/01 05:46:39;;;;;;;8.37;5.47;;;;;;;11.37;56.31;100229.75;4959601;28;20175;-63
2021/05/01 05:49:06;;;;;;;9.70;5.93;;;;;;;11.50;56.30;100259.81;4967406;28;20049;-65
2021/05/01 05:51:34;;;;;;;12.50;6.03;;;;;;;11.49;56.44;100255.34;4964240;28;20404;-67
2021/05/01 05:54:00;;;;;;;7.53;5.03;;;;;;;11.48;56.37;100264.03;4960509;28;20054;-62
2021/05/01 05:56:27;;;;;;;11.03;5.43;;;;;;;11.47;56.75;100262.38;4958002;28;20054;-60
2021/05/01 05:58:53;;;;;;;8.03;6.03;;;;;;;11.47;56.83;100271.59;4959498;28;20047;-59
2021/05/01 06:01:21;;;;;;;12.37;5.40;;;;;;;11.47;56.72;100277.19;4962389;28;20748;-60
2021/05/01 06:03:50;;;;;;;11.60;5.50;;;;;;;11.39;56.95;100255.44;4961205;28;20518;-60
2021/05/01 06:06:22;;;;;;;12.13;5.63;;;;;;;11.52;56.84;100281.88;4964738;28;20047;-60
2021/05/01 06:08:49;;;;;;;12.90;5.20;;;;;;;11.64;56.78;100276.75;4964439;28;20062;-61
2021/05/01 06:11:18;;;;;;;8.33;5.37;;;;;;;11.76;56.80;100276.34;4958596;28;20053;-61
2021/05/01 06:13:49;;;;;;;7.67;5.00;;;;;;;11.93;56.75;100282.38;4962866;28;20047;-62
2021/05/01 06:16:18;;;;;;;12.30;5.57;;;;;;;12.05;56.54;100279.97;4957415;28;20390;-58
2021/05/01 06:18:44;;;;;;;8.43;4.97;;;;;;;12.11;56.59;100293.94;4964258;28;20051;-59
2021/05/01 06:21:11;;;;;;;8.27;5.30;;;;;;;12.04;56.69;100275.53;4963976;28;20058;-58
2021/05/01 06:23:40;;;;;;;7.30;5.10;;;;;;;12.08;57.10;100284.97;4954889;28;20062;-58
2021/05/01 06:26:07;;;;;;;10.90;5.60;;;;;;;12.23;57.08;100297.13;4960572;28;20457;-59
2021/05/01 06:28:34;;;;;;;7.10;5.27;;;;;;;12.33;56.94;100306.22;4956143;28;20047;-60
2021/05/01 06:31:06;;;;;;;10.60;5.40;;;;;;;12.42;56.74;100300.81;4958517;28;20057;-60
2021/05/01 06:33:36;;;;;;;14.37;5.93;;;;;;;12.57;56.47;100303.41;4960188;28;20053;-57
2021/05/01 06:36:03;;;;;;;9.88;5.38;;;;;;;12.70;56.44;100306.63;4959381;28;20055;-67
2021/05/01 06:38:31;;;;;;;6.07;4.07;;;;;;;12.79;56.15;100304.84;4962219;28;20046;-68
2021/05/01 06:41:03;;;;;;;7.03;5.10;;;;;;;12.95;55.70;100309.06;4958702;28;20067;-62
2021/05/01 06:44:01;;;;;;;7.57;5.13;;;;;;;13.03;55.92;100313.19;4959047;28;20047;-58
2021/05/01 06:46:29;;;;;;;9.23;4.80;;;;;;;13.12;55.57;100304.91;4956572;28;20435;-60
2021/05/01 06:48:58;;;;;;;7.33;5.27;;;;;;;13.26;55.29;100309.50;4957819;28;20134;-60
2021/05/01 06:51:26;;;;;;;7.57;4.90;;;;;;;13.32;55.10;100307.41;4957193;28;20039;-59
2021/05/01 06:53:53;;;;;;;7.07;4.83;;;;;;;13.49;55.06;100312.47;4954326;28;20043;-59
2021/05/01 06:56:20;;;;;;;7.23;4.77;;;;;;;13.66;54.71;100323.13;4958922;28;20126;-59
2021/05/01 06:58:47;;;;;;;8.40;4.47;;;;;;;13.83;54.32;100323.38;4954817;28;20055;-62
2021/05/01 07:01:14;;;;;;;6.73;4.37;;;;;;;13.90;54.21;100328.59;4958815;28;20047;-60
2021/05/01 07:03:47;;;;;;;6.43;4.83;;;;;;;13.67;54.16;100286.34;4957203;28;20058;-61
2021/05/01 07:06:18;;;;;;;7.93;4.70;;;;;;;14.05;53.78;100327.47;4959957;28;20047;-64
2021/05/01 07:08:45;;;;;;;7.10;5.60;;;;;;;14.22;53.52;100333.31;4956753;28;20377;-60
2021/05/01 07:11:13;;;;;;;9.70;5.30;;;;;;;14.31;53.32;100327.84;4960622;28;20400;-60
2021/05/01 07:13:40;;;;;;;11.10;5.63;;;;;;;14.53;53.05;100336.41;4959189;28;20047;-59
2021/05/01 07:16:12;;;;;;;9.63;5.53;;;;;;;14.69;52.71;100328.47;4959462;28;20061;-58
2021/05/01 07:18:40;;;;;;;6.63;4.47;;;;;;;14.87;52.44;100326.69;4957739;28;20047;-61
2021/05/01 07:21:08;;;;;;;7.60;4.47;;;;;;;15.03;52.13;100324.38;4960727;28;20059;-60
2021/05/01 07:23:35;;;;;;;6.63;4.40;;;;;;;15.21;51.79;100325.34;4958200;28;20055;-61
2021/05/01 07:26:03;;;;;;;7.40;4.70;;;;;;;15.38;51.28;100326.38;4956896;28;20552;-59
2021/05/01 07:28:36;;;;;;;7.33;4.97;;;;;;;15.63;51.11;100335.31;4958364;28;20055;-60
2021/05/01 07:31:06;;;;;;;8.80;5.20;;;;;;;15.80;50.42;100331.84;4957110;28;20042;-60
2021/05/01 07:33:54;;;;;;;9.75;5.38;;;;;;;15.94;50.40;100332.56;4959482;28;20045;-60
2021/05/01 07:36:25;;;;;;;5.73;4.13;;;;;;;16.12;49.76;100330.69;4956997;28;20051;-59
2021/05/01 07:38:53;;;;;;;6.77;4.37;;;;;;;16.25;49.62;100334.56;4955967;28;20051;-59
2021/05/01 07:41:20;;;;;;;6.07;3.87;;;;;;;16.39;49.19;100340.09;4955296;28;20051;-61
2021/05/01 07:43:49;;;;;;;6.70;4.20;;;;;;;16.40;49.23;100341.75;4962383;28;20069;-60
2021/05/01 07:46:19;;;;;;;7.77;4.73;;;;;;;16.41;49.17;100340.59;4957171;28;20043;-60
2021/05/01 07:48:47;;;;;;;7.68;4.45;;;;;;;16.56;48.88;100343.00;4957024;28;20050;-59
2021/05/01 07:51:14;;;;;;;6.45;4.35;;;;;;;16.70;48.59;100349.34;4954735;28;20043;-60
2021/05/01 07:53:42;;;;;;;6.88;4.50;;;;;;;16.91;48.33;100348.75;4959531;28;20046;-60
2021/05/01 07:56:12;;;;;;;5.90;4.53;;;;;;;16.99;48.20;100359.22;4958872;28;20050;-60
2021/05/01 07:58:38;;;;;;;4.53;3.50;;;;;;;17.01;47.70;100340.81;4963633;28;20062;-60
2021/05/01 08:01:04;;;;;;;7.82;4.30;;;;;;;17.16;47.68;100353.66;4955988;28;20413;-60
2021/05/01 08:03:31;;;;;;;6.43;4.68;;;;;;;17.34;47.03;100353.66;4959405;28;20149;-60
2021/05/01 08:05:58;;;;;;;6.10;3.95;;;;;;;17.53;46.76;100356.97;4951520;28;20411;-59
2021/05/01 08:08:24;;;;;;;5.60;3.78;;;;;;;17.79;46.75;100359.00;4958637;28;20047;-60
2021/05/01 08:10:50;;;;;;;5.82;3.13;;;;;;;17.92;46.05;100346.69;4956456;28;20046;-60
2021/05/01 08:13:17;;;;;;;7.28;4.00;;;;;;;18.07;45.90;100348.97;4961432;28;20047;-59
2021/05/01 08:15:43;;;;;;;5.93;3.42;;;;;;;18.08;45.20;100347.78;4956893;28;20506;-60
2021/05/01 08:18:09;;;;;;;5.93;2.83;;;;;;;18.20;44.83;100344.28;4955443;28;20062;-59
2021/05/01 08:20:36;;;;;;;6.95;3.20;;;;;;;18.38;44.58;100343.03;4952876;28;20046;-59
2021/05/01 08:23:03;;;;;;;4.40;2.85;;;;;;;18.64;44.16;100351.44;4963303;28;20066;-60
2021/05/01 08:25:29;;;;;;;4.60;2.80;;;;;;;18.75;43.47;100345.41;4958993;28;20066;-60
2021/05/01 08:27:56;;;;;;;4.82;3.10;;;;;;;18.89;43.27;100354.50;4959356;28;20448;-59
2021/05/01 08:30:23;;;;;;;5.78;3.25;;;;;;;19.02;42.55;100359.06;4958061;28;20407;-60
2021/05/01 08:32:49;;;;;;;7.78;3.55;;;;;;;19.03;42.53;100340.91;4960907;28;20051;-60
2021/05/01 08:35:17;;;;;;;5.35;3.65;;;;;;;19.20;42.60;100350.47;4955436;28;20047;-60
2021/05/01 08:37:45;;;;;;;5.70;3.42;;;;;;;19.40;42.42;100349.66;4958477;28;20047;-60
2021/05/01 08:40:13;;;;;;;9.05;3.67;;;;;;;19.60;42.64;100348.81;4956975;28;20066;-59
2021/05/01 08:42:44;;;;;;;6.70;3.05;;;;;;;19.69;42.30;100348.75;4958016;28;20046;-60
2021/05/01 08:45:12;;;;;;;4.15;3.65;;;;;;;19.73;42.27;100349.75;4957706;28;20046;-60
2021/05/01 08:47:44;;;;;;;6.97;4.30;;;;;;;19.79;42.48;100356.00;4958693;28;20047;-61
2021/05/01 08:50:41;;;;;;;4.53;3.40;;;;;;;19.88;42.41;100360.44;4956564;28;20061;-59
2021/05/01 08:53:08;;;;;;;6.22;3.13;;;;;;;20.21;41.82;100361.63;4952008;28;20051;-59
2021/05/01 08:55:38;;;;;;;4.25;2.63;;;;;;;20.33;41.31;100353.13;4958883;28;20050;-59
2021/05/01 08:58:08;;;;;;;4.03;2.97;;;;;;;20.55;41.02;100361.22;4956694;28;20043;-59
2021/05/01 09:00:37;;;;;;;5.40;3.08;;;;;;;20.64;40.73;100365.97;4951424;28;20058;-61
2021/05/01 09:03:06;;;;;;;6.43;3.05;;;;;;;20.66;40.45;100370.09;4952496;28;20054;-60
2021/05/01 09:05:35;;;;;;;6.10;3.13;;;;;;;20.82;39.60;100361.72;4958083;28;20051;-60
2021/05/01 09:08:08;;;;;;;5.97;3.05;;;;;;;20.81;39.47;100374.25;4952057;28;20400;-60
2021/05/01 09:10:54;;;;;;;5.28;2.85;;;;;;;20.68;39.74;100342.19;4952891;28;20170;-61
2021/05/01 09:13:25;;;;;;;5.05;2.72;;;;;;;20.91;39.04;100370.13;4952421;28;20047;-60
2021/05/01 09:16:08;;;;;;;4.85;3.80;;;;;;;21.14;38.69;100364.78;4952380;28;21752;-59
2021/05/01 09:18:50;;;;;;;4.78;2.83;;;;;;;21.44;38.09;100369.03;4952399;28;20054;-59
2021/05/01 09:21:24;;;;;;;5.53;2.38;;;;;;;21.61;37.25;100365.06;4955430;28;20488;-59
2021/05/01 09:23:51;;;;;;;5.28;2.45;;;;;;;21.51;37.16;100374.94;4951960;28;20047;-60
2021/05/01 09:26:33;;;;;;;5.90;2.00;;;;;;;21.50;36.49;100375.25;4952063;28;20055;-60
2021/05/01 09:28:59;;;;;;;5.15;2.55;;;;;;;21.48;36.26;100369.97;4952226;28;20055;-59
2021/05/01 09:31:27;;;;;;;3.75;2.20;;;;;;;21.70;36.39;100373.44;4951996;28;20142;-62
2021/05/01 09:33:54;;;;;;;3.58;2.33;;;;;;;21.68;36.45;100365.28;4955456;28;20135;-60
2021/05/01 09:36:24;;;;;;;3.08;2.25;;;;;;;21.89;36.01;100367.09;4955683;28;20411;-59
2021/05/01 09:39:13;;;;;;;4.07;1.92;;;;;;;21.89;35.82;100384.97;4953277;28;20051;-58
2021/05/01 09:41:45;;;;;;;3.78;2.03;;;;;;;22.16;35.12;100388.22;4956645;28;20058;-60
2021/05/01 09:44:16;;;;;;;3.45;2.38;;;;;;;22.34;34.50;100378.16;4952091;28;20062;-60
2021/05/01 09:46:48;;;;;;;5.07;2.10;;;;;;;22.27;34.31;100383.66;4958615;28;20416;-60
2021/05/01 09:49:14;;;;;;;3.42;2.30;;;;;;;22.31;34.19;100390.25;4954908;28;20062;-60
2021/05/01 09:51:53;;;;;;;2.83;1.88;;;;;;;22.17;34.59;100375.66;4953836;28;20039;-61
2021/05/01 09:54:23;;;;;;;3.63;2.45;;;;;;;22.16;34.61;100386.19;4955587;28;20492;-61
2021/05/01 09:56:52;;;;;;;5.18;2.70;;;;;;;22.21;34.31;100380.22;4956300;28;20047;-60
2021/05/01 09:59:19;;;;;;;4.03;2.33;;;;;;;22.52;33.79;100397.72;4951890;28;20062;-60
2021/05/01 10:01:58;;;;;;;4.18;2.53;;;;;;;22.43;33.94;100386.53;4951854;28;20098;-61
2021/05/01 10:04:25;;;;;;;4.75;2.72;;;;;;;22.48;33.85;100389.91;4955213;28;20083;-60
2021/05/01 10:07:07;;;;;;;3.17;2.47;;;;;;;22.67;33.15;100374.16;4955997;28;20130;-60
2021/05/01 10:09:37;;;;;;;4.70;2.70;;;;;;;22.92;32.74;100381.34;4955471;28;20062;-60
2021/05/01 10:12:05;;;;;;;4.90;2.80;;;;;;;22.99;33.15;100396.94;4960133;28;20473;-60
2021/05/01 10:14:48;;;;;;;3.97;2.80;;;;;;;23.22;32.65;100386.53;4953751;28;20293;-60
2021/05/01 10:17:26;;;;;;;2.47;1.80;;;;;;;23.47;31.81;100378.56;4954929;28;20412;-60
2021/05/01 10:20:04;;;;;;;7.00;2.77;;;;;;;23.58;31.61;100375.94;4954936;28;20057;-60
2021/05/01 10:22:32;;;;;;;4.10;2.58;;;;;;;23.77;30.97;100380.91;4954830;28;20045;-60
2021/05/01 10:25:02;;;;;;;2.97;1.75;;;;;;;23.93;30.30;100375.94;4955048;28;20057;-60
2021/05/01 10:27:39;;;;;;;5.45;2.45;;;;;;;24.08;30.46;100392.16;4960168;28;20054;-61
2021/05/01 10:33:19;;;;;;;3.28;2.20;;;;;;;24.55;29.67;100384.53;4956360;28;20047;-60
2021/05/01 10:36:09;;;;;;;2.72;2.10;;;;;;;24.70;30.02;100380.72;4954635;28;20051;-59
2021/05/01 10:38:37;;;;;;;3.75;2.08;;;;;;;25.03;29.53;100370.66;4954784;28;20392;-59
2021/05/01 10:41:24;;;;;;;3.28;2.17;;;;;;;25.35;29.03;100381.81;4958785;28;20059;-59
2021/05/01 10:43:54;;;;;;;3.75;2.15;;;;;;;25.53;29.04;100380.00;4961344;28;20134;-61
2021/05/01 10:46:22;;;;;;;6.00;3.00;;;;;;;25.27;28.10;100375.16;4956195;28;20047;-60
2021/05/01 10:48:52;;;;;;;5.55;2.45;;;;;;;24.81;28.30;100378.84;4957249;28;20493;-60
2021/05/01 10:51:24;;;;;;;3.33;2.45;;;;;;;24.35;28.63;100378.81;4954350;28;20051;-59
2021/05/01 10:54:26;;;;;;;4.68;3.22;;;;;;;24.43;29.39;100376.13;4954653;28;20051;-60
2021/05/01 10:56:54;;;;;;;5.20;2.88;;;;;;;24.26;29.70;100369.66;4932957;28;20047;-60
2021/05/01 10:59:30;;;;;;;4.47;2.83;;;;;;;23.74;30.75;100393.88;4954337;28;20503;-60
2021/05/01 11:02:01;;;;;;;4.22;2.65;;;;;;;23.61;30.82;100383.75;4963163;28;20065;-59
2021/05/01 11:04:33;;;;;;;10.35;3.08;;;;;;;23.42;31.32;100385.41;4954296;28;20049;-60
2021/05/01 11:07:08;;;;;;;5.10;2.63;;;;;;;23.83;31.16;100379.41;4954414;28;20043;-60
2021/05/01 11:09:42;;;;;;;5.82;2.90;;;;;;;23.96;30.92;100377.19;4959499;28;20101;-60
2021/05/01 11:12:14;;;;;;;4.82;3.25;;;;;;;24.31;31.62;100380.78;4954463;28;20465;-60
2021/05/01 11:14:50;;;;;;;6.68;3.10;;;;;;;24.62;30.75;100372.41;4953050;28;20043;-60
2021/05/01 11:17:32;;;;;;;9.15;4.97;;;;;;;24.18;31.08;100373.59;4953983;28;20504;-59
2021/05/01 11:20:00;;;;;;;9.73;4.32;;;;;;;24.13;31.73;100385.28;4954489;28;20415;-60
2021/05/01 11:22:27;;;;;;;13.63;7.15;;;;;;;24.40;31.64;100379.72;4954164;28;20437;-61
2021/05/01 11:24:56;;;;;;;10.68;5.75;;;;;;;24.17;31.46;100374.81;4954401;28;20444;-61
2021/05/01 11:27:24;;;;;;;6.28;3.45;;;;;;;23.71;31.89;100370.97;4953871;28;20489;-60
2021/05/01 11:29:52;;;;;;;11.88;3.30;;;;;;;23.79;32.30;100373.59;4954131;28;20059;-60
2021/05/01 11:32:18;;;;;;;5.80;3.38;;;;;;;24.22;32.08;100367.97;4956430;28;20055;-61
2021/05/01 11:34:51;;;;;;;5.63;2.80;;;;;;;24.62;31.75;100370.38;4953953;28;20515;-60